Time;durP1;ratioP1;P1;durP2;ratioP2;P2;SDS_P1;SDS_P2;PMS_P1;PMS_P2;Temp;Humidity;BMP_temperature;BMP_pressure;BME280_temperature;BME280_humidity;BME280_pressure;Samples;Min_cycle;Max_cycle;Signal;HPM_P1;HPM_P2
2021/04/11 00:01:58;;;;;;;0.00;0.00;;;2.60;99.90;;;;;;5026365;28;20126;-82
2021/04/11 00:04:25;;;;;;;0.25;0.25;;;2.60;99.90;;;;;;5008114;28;20080;-82
2021/04/11 00:06:51;;;;;;;0.00;0.00;;;2.60;99.90;;;;;;5015400;28;20054;-82
2021/04/11 00:09:18;;;;;;;0.00;0.00;;;2.70;99.90;;;;;;5008340;28;20068;-82
2021/04/11 00:11:44;;;;;;;0.00;0.00;;;2.70;99.90;;;;;;5011454;28;20101;-82
2021/04/11 00:14:10;;;;;;;0.00;0.00;;;2.70;99.90;;;;;;5015372;28;20080;-82
2021/04/11 00:16:37;;;;;;;0.00;0.00;;;2.70;99.90;;;;;;5009151;28;20082;-82
2021/04/11 00:19:03;;;;;;;3.63;0.70;;;2.80;99.90;;;;;;5007889;28;20049;-82
2021/04/11 00:21:30;;;;;;;1.92;1.75;;;2.80;99.90;;;;;;5009444;28;20485;-83
2021/04/11 00:23:56;;;;;;;0.20;0.17;;;2.80;99.90;;;;;;5007447;28;20085;-83
2021/04/11 00:26:22;;;;;;;0.35;0.35;;;2.80;99.90;;;;;;5006167;28;20121;-83
2021/04/11 00:28:49;;;;;;;0.00;0.00;;;2.80;99.90;;;;;;5008335;28;20176;-83
2021/04/11 00:31:15;;;;;;;0.22;0.22;;;2.80;99.90;;;;;;5007553;28;20136;-83
2021/04/11 00:33:45;;;;;;;0.00;0.00;;;2.80;99.90;;;;;;5008006;28;20057;-83
2021/04/11 00:36:14;;;;;;;0.00;0.00;;;2.80;99.90;;;;;;5012214;28;20077;-83
2021/04/11 00:38:41;;;;;;;0.00;0.00;;;2.80;99.90;;;;;;5018866;28;20498;-83
2021/04/11 00:41:25;;;;;;;0.28;0.10;;;2.80;99.90;;;;;;5006431;28;20076;-83
2021/04/11 00:43:52;;;;;;;0.00;0.00;;;2.80;99.90;;;;;;5021846;28;20042;-83
2021/04/11 00:46:30;;;;;;;0.05;0.05;;;2.80;99.90;;;;;;5005268;28;20061;-83
2021/04/11 00:48:56;;;;;;;0.00;0.00;;;2.80;99.90;;;;;;5023836;28;20046;-83
2021/04/11 00:51:27;;;;;;;0.00;0.00;;;2.90;99.90;;;;;;5023969;28;20049;-83
2021/04/11 00:53:58;;;;;;;0.00;0.00;;;2.90;99.90;;;;;;5026071;28;20041;-83
2021/04/11 00:56:25;;;;;;;0.00;0.00;;;2.90;99.90;;;;;;5022033;28;20081;-83
2021/04/11 00:58:52;;;;;;;0.52;0.52;;;2.90;99.90;;;;;;5008993;28;20181;-83
2021/04/11 01:01:18;;;;;;;0.00;0.00;;;2.90;99.90;;;;;;5008185;28;20100;-83
2021/04/11 01:03:45;;;;;;;0.00;0.00;;;2.90;99.90;;;;;;5015434;28;20128;-83
2021/04/11 01:06:18;;;;;;;0.00;0.00;;;2.90;99.90;;;;;;5025397;28;20070;-84
2021/04/11 01:08:45;;;;;;;0.00;0.00;;;2.90;99.90;;;;;;5009357;28;20049;-83
2021/04/11 01:11:13;;;;;;;0.00;0.00;;;2.90;99.90;;;;;;5015461;28;21433;-83
2021/04/11 01:13:50;;;;;;;0.00;0.00;;;2.90;99.90;;;;;;5006064;28;20144;-83
2021/04/11 01:16:17;;;;;;;0.00;0.00;;;2.90;99.90;;;;;;5006852;28;20528;-85
2021/04/11 01:18:46;;;;;;;0.00;0.00;;;2.90;99.90;;;;;;5009380;28;20069;-84
2021/04/11 01:21:28;;;;;;;0.00;0.00;;;2.90;99.90;;;;;;5022478;28;20181;-84
2021/04/11 01:24:15;;;;;;;0.00;0.00;;;2.90;99.90;;;;;;5024272;28;20709;-84
2021/04/11 01:26:43;;;;;;;0.45;0.17;;;3.00;99.90;;;;;;5006080;28;20140;-84
2021/04/11 01:29:11;;;;;;;0.00;0.00;;;3.00;99.90;;;;;;5007024;28;20046;-83
2021/04/11 01:31:38;;;;;;;0.00;0.00;;;3.00;99.90;;;;;;5024755;28;20069;-83
2021/04/11 01:34:07;;;;;;;0.05;0.05;;;3.00;99.90;;;;;;5011623;28;20049;-83
2021/04/11 01:36:38;;;;;;;0.00;0.00;;;3.00;99.90;;;;;;5009432;28;20141;-83
2021/04/11 01:39:09;;;;;;;0.00;0.00;;;3.00;99.90;;;;;;5027029;28;20076;-83
2021/04/11 01:41:40;;;;;;;0.00;0.00;;;3.00;99.90;;;;;;5025560;28;20410;-84
2021/04/11 01:44:09;;;;;;;0.00;0.00;;;3.10;99.90;;;;;;5027741;28;20120;-83
2021/04/11 01:46:35;;;;;;;0.00;0.00;;;3.10;99.90;;;;;;5026724;28;20151;-83
2021/04/11 01:49:03;;;;;;;0.15;0.15;;;3.10;99.90;;;;;;5009508;28;20062;-83
2021/04/11 01:51:37;;;;;;;0.00;0.00;;;3.10;99.90;;;;;;5026997;28;20054;-84
2021/04/11 01:54:12;;;;;;;0.00;0.00;;;3.10;99.90;;;;;;5027702;28;20070;-82
2021/04/11 01:56:42;;;;;;;0.00;0.00;;;3.10;99.90;;;;;;5028089;28;20456;-82
2021/04/11 01:59:13;;;;;;;0.00;0.00;;;3.10;99.90;;;;;;5028238;28;20058;-83
2021/04/11 02:01:40;;;;;;;0.00;0.00;;;3.10;99.90;;;;;;5011740;28;20132;-82
2021/04/11 02:04:07;;;;;;;0.00;0.00;;;3.10;99.90;;;;;;5021512;28;20084;-82
2021/04/11 02:06:42;;;;;;;0.50;0.30;;;3.10;99.90;;;;;;5011497;28;20050;-82
2021/04/11 02:09:20;;;;;;;0.00;0.00;;;3.10;99.90;;;;;;5009501;28;20556;-82
2021/04/11 02:11:47;;;;;;;0.00;0.00;;;3.10;99.90;;;;;;5010042;28;20056;-82
2021/04/11 02:14:14;;;;;;;0.30;0.30;;;3.10;99.90;;;;;;5017941;28;20146;-83
2021/04/11 02:16:41;;;;;;;0.00;0.00;;;3.10;99.90;;;;;;5012445;28;20548;-83
2021/04/11 02:19:15;;;;;;;0.08;0.08;;;3.10;99.90;;;;;;5019471;28;20115;-82
2021/04/11 02:21:45;;;;;;;0.00;0.00;;;3.10;99.90;;;;;;5012985;28;20054;-82
2021/04/11 02:24:13;;;;;;;0.00;0.00;;;3.10;99.90;;;;;;5026241;28;20141;-82
2021/04/11 02:26:40;;;;;;;0.20;0.20;;;3.10;99.90;;;;;;5025619;28;20053;-82
2021/04/11 02:29:09;;;;;;;0.00;0.00;;;3.10;99.90;;;;;;5012084;28;20490;-83
2021/04/11 02:31:35;;;;;;;0.00;0.00;;;3.10;99.90;;;;;;5026947;28;20081;-83
2021/04/11 02:34:09;;;;;;;0.00;0.00;;;3.20;99.90;;;;;;5018154;28;20109;-82
2021/04/11 02:36:46;;;;;;;0.00;0.00;;;3.20;99.90;;;;;;5012512;28;20104;-82
2021/04/11 02:39:17;;;;;;;0.00;0.00;;;3.20;99.90;;;;;;5012464;28;20050;-82
2021/04/11 02:41:43;;;;;;;0.05;0.05;;;3.20;99.90;;;;;;5027726;28;20136;-82
2021/04/11 02:44:12;;;;;;;0.00;0.00;;;3.20;99.90;;;;;;5010810;28;20054;-82
2021/04/11 02:46:40;;;;;;;0.00;0.00;;;3.20;99.90;;;;;;5021346;28;20057;-82
2021/04/11 02:49:11;;;;;;;0.00;0.00;;;3.20;99.90;;;;;;5027965;28;20045;-82
2021/04/11 02:51:38;;;;;;;0.00;0.00;;;3.30;99.90;;;;;;5023986;28;20077;-83
2021/04/11 02:54:08;;;;;;;0.00;0.00;;;3.30;99.90;;;;;;5026453;28;20068;-83
2021/04/11 02:56:38;;;;;;;0.00;0.00;;;3.30;99.90;;;;;;5027580;28;21066;-83
2021/04/11 02:59:05;;;;;;;0.05;0.05;;;3.30;99.90;;;;;;5010290;28;20100;-83
2021/04/11 03:01:36;;;;;;;0.03;0.03;;;3.30;99.90;;;;;;5013317;28;20046;-83
2021/04/11 03:04:03;;;;;;;0.00;0.00;;;3.30;99.90;;;;;;5010819;28;20070;-83
2021/04/11 03:06:35;;;;;;;0.00;0.00;;;3.40;99.90;;;;;;5012443;28;20049;-83
2021/04/11 03:09:16;;;;;;;0.00;0.00;;;3.40;99.90;;;;;;5007277;28;20515;-83
2021/04/11 03:11:47;;;;;;;0.00;0.00;;;3.40;99.90;;;;;;5028033;28;20105;-82
2021/04/11 03:14:15;;;;;;;0.00;0.00;;;3.40;99.90;;;;;;5009415;28;20144;-83
2021/04/11 03:16:43;;;;;;;0.05;0.05;;;3.40;99.90;;;;;;5016029;28;20053;-83
2021/04/11 03:19:14;;;;;;;0.00;0.00;;;3.40;99.90;;;;;;5025298;28;20073;-83
2021/04/11 03:21:42;;;;;;;0.00;0.00;;;3.50;99.90;;;;;;5009700;28;20560;-83
2021/04/11 03:24:09;;;;;;;0.00;0.00;;;3.50;99.90;;;;;;5024654;28;20510;-83
2021/04/11 03:26:47;;;;;;;0.00;0.00;;;3.50;99.90;;;;;;5011317;28;20548;-83
2021/04/11 03:29:40;;;;;;;0.15;0.15;;;3.50;99.90;;;;;;5025233;28;20096;-83
2021/04/11 03:32:28;;;;;;;0.00;0.00;;;3.50;99.90;;;;;;5021310;28;20462;-82
2021/04/11 03:34:58;;;;;;;0.00;0.00;;;3.50;99.90;;;;;;5023817;28;20046;-82
2021/04/11 03:37:26;;;;;;;0.52;0.47;;;3.50;99.90;;;;;;5023779;28;20112;-82
2021/04/11 03:39:53;;;;;;;0.00;0.00;;;3.50;99.90;;;;;;5015519;28;20088;-82
2021/04/11 03:42:22;;;;;;;0.00;0.00;;;3.50;99.90;;;;;;5021651;28;20106;-82
2021/04/11 03:44:51;;;;;;;0.00;0.00;;;3.50;99.90;;;;;;5024591;28;20115;-82
2021/04/11 03:47:40;;;;;;;0.00;0.00;;;3.50;99.90;;;;;;5007453;28;20097;-82
2021/04/11 03:50:09;;;;;;;0.00;0.00;;;3.50;99.90;;;;;;5020679;28;20049;-82
2021/04/11 03:52:48;;;;;;;0.00;0.00;;;3.50;99.90;;;;;;5023527;28;20064;-81
2021/04/11 03:55:22;;;;;;;0.00;0.00;;;3.50;99.90;;;;;;5007417;28;20104;-81
2021/04/11 03:57:53;;;;;;;0.00;0.00;;;3.50;99.90;;;;;;5006921;28;20057;-81
2021/04/11 04:00:37;;;;;;;0.08;0.08;;;3.50;99.90;;;;;;5023314;28;20046;-82
2021/04/11 04:03:10;;;;;;;0.10;0.10;;;3.50;99.90;;;;;;5004410;28;20133;-82
2021/04/11 04:05:37;;;;;;;3.97;0.80;;;3.40;99.90;;;;;;5006624;28;20054;-81
2021/04/11 04:08:04;;;;;;;0.05;0.03;;;3.50;99.90;;;;;;5006390;28;20054;-81
2021/04/11 04:10:39;;;;;;;0.00;0.00;;;3.40;99.90;;;;;;5023626;28;20050;-82
2021/04/11 04:13:31;;;;;;;0.00;0.00;;;3.40;99.90;;;;;;5008354;28;20141;-81
2021/04/11 04:16:16;;;;;;;0.00;0.00;;;3.40;99.90;;;;;;5003689;28;20070;-81
2021/04/11 04:19:13;;;;;;;0.13;0.13;;;3.40;99.90;;;;;;5020954;28;20042;-82
2021/04/11 04:22:06;;;;;;;0.20;0.20;;;3.40;99.90;;;;;;5021867;28;20084;-81
2021/04/11 04:24:40;;;;;;;0.00;0.00;;;3.40;99.90;;;;;;5004210;28;20101;-81
2021/04/11 04:27:32;;;;;;;0.00;0.00;;;3.40;99.90;;;;;;5023066;28;20038;-82
2021/04/11 04:30:20;;;;;;;0.30;0.30;;;3.40;99.90;;;;;;5005592;28;20073;-84
2021/04/11 04:32:55;;;;;;;0.00;0.00;;;3.40;99.90;;;;;;5004689;28;20049;-81
2021/04/11 04:35:43;;;;;;;0.00;0.00;;;3.40;99.90;;;;;;5007241;28;20129;-81
2021/04/11 04:38:44;;;;;;;0.00;0.00;;;3.40;99.90;;;;;;5022800;28;20114;-82
2021/04/11 04:41:34;;;;;;;0.70;0.70;;;3.40;99.90;;;;;;5003784;28;20133;-82
2021/04/11 04:44:12;;;;;;;0.00;0.00;;;3.40;99.90;;;;;;5014349;28;20085;-82
2021/04/11 04:46:46;;;;;;;0.10;0.10;;;3.40;99.90;;;;;;5020775;28;20168;-82
2021/04/11 04:49:40;;;;;;;0.00;0.00;;;3.40;99.90;;;;;;5006696;28;20049;-82
2021/04/11 04:52:13;;;;;;;0.00;0.00;;;3.40;99.90;;;;;;5007223;28;20575;-82
2021/04/11 04:54:47;;;;;;;0.00;0.00;;;3.40;99.90;;;;;;5005644;28;20074;-82
2021/04/11 04:57:25;;;;;;;0.00;0.00;;;3.40;99.90;;;;;;5021777;28;20057;-82
2021/04/11 05:00:02;;;;;;;0.00;0.00;;;3.40;99.90;;;;;;5002817;28;20121;-82
2021/04/11 05:02:46;;;;;;;0.00;0.00;;;3.40;99.90;;;;;;5006976;28;20048;-82
2021/04/11 05:05:14;;;;;;;0.00;0.00;;;3.40;99.90;;;;;;5007026;28;20042;-81
2021/04/11 05:08:12;;;;;;;0.00;0.00;;;3.50;99.90;;;;;;5008431;28;20080;-82
2021/04/11 05:10:47;;;;;;;0.00;0.00;;;3.40;99.90;;;;;;4981806;28;20548;-82
2021/04/11 05:13:25;;;;;;;0.00;0.00;;;3.40;99.90;;;;;;5021619;28;20041;-82
2021/04/11 05:15:59;;;;;;;0.00;0.00;;;3.50;99.90;;;;;;5009526;28;20042;-82
2021/04/11 05:18:30;;;;;;;;;;;3.50;99.90;;;;;;5008568;28;20108;-82
2021/04/11 05:21:01;;;;;;;0.00;0.00;;;3.50;99.90;;;;;;5008435;28;20487;-82
2021/04/11 05:23:44;;;;;;;0.00;0.00;;;3.50;99.90;;;;;;5019732;28;20141;-82
2021/04/11 05:26:30;;;;;;;0.07;0.07;;;3.60;99.90;;;;;;5004118;28;20042;-82
2021/04/11 05:28:56;;;;;;;0.00;0.00;;;3.60;99.90;;;;;;5021900;28;20628;-82
2021/04/11 05:31:37;;;;;;;0.13;0.08;;;3.60;99.90;;;;;;5021091;28;20050;-82
2021/04/11 05:34:11;;;;;;;0.00;0.00;;;3.70;99.90;;;;;;5013614;28;20046;-82
2021/04/11 05:36:46;;;;;;;0.00;0.00;;;3.70;99.90;;;;;;5004987;28;20132;-82
2021/04/11 05:39:17;;;;;;;0.10;0.10;;;3.80;99.90;;;;;;5020553;28;20048;-82
2021/04/11 05:41:47;;;;;;;0.10;0.10;;;3.80;99.90;;;;;;5020614;28;20044;-83
2021/04/11 05:44:25;;;;;;;0.90;0.60;;;3.80;99.90;;;;;;5006030;28;20046;-83
2021/04/11 05:47:08;;;;;;;0.00;0.00;;;3.80;99.90;;;;;;5018812;28;20105;-82
2021/04/11 05:49:48;;;;;;;0.00;0.00;;;3.80;99.90;;;;;;5004966;28;20056;-82
2021/04/11 05:52:26;;;;;;;0.00;0.00;;;3.80;99.90;;;;;;5004709;28;20049;-83
2021/04/11 05:54:55;;;;;;;0.03;0.03;;;3.80;99.90;;;;;;5022735;28;20049;-83
2021/04/11 05:57:31;;;;;;;0.00;0.00;;;3.80;99.90;;;;;;5006551;28;20104;-82
2021/04/11 06:00:06;;;;;;;0.00;0.00;;;3.80;99.90;;;;;;5001059;28;20118;-83
2021/04/11 06:02:44;;;;;;;0.00;0.00;;;3.80;99.90;;;;;;5006765;28;20160;-83
2021/04/11 06:05:13;;;;;;;0.00;0.00;;;3.80;99.90;;;;;;5020398;28;20096;-83
2021/04/11 06:07:49;;;;;;;0.00;0.00;;;3.70;99.90;;;;;;5021914;28;20050;-82
2021/04/11 06:10:29;;;;;;;0.00;0.00;;;3.70;99.90;;;;;;5018889;28;20107;-82
2021/04/11 06:13:04;;;;;;;0.00;0.00;;;3.70;99.90;;;;;;5021055;28;20094;-82
2021/04/11 06:15:55;;;;;;;0.00;0.00;;;3.70;99.90;;;;;;5004403;28;20045;-82
2021/04/11 06:18:22;;;;;;;0.00;0.00;;;3.70;99.90;;;;;;5004665;28;20100;-83
2021/04/11 06:20:51;;;;;;;0.47;0.13;;;3.70;99.90;;;;;;5024882;28;20095;-83
2021/04/11 06:23:37;;;;;;;0.00;0.00;;;3.70;99.90;;;;;;5008599;28;20053;-82
2021/04/11 06:26:09;;;;;;;0.00;0.00;;;3.70;99.90;;;;;;5023172;28;20498;-82
2021/04/11 06:28:48;;;;;;;0.00;0.00;;;3.70;99.90;;;;;;5009080;28;20053;-82
2021/04/11 06:31:30;;;;;;;0.10;0.10;;;3.70;99.90;;;;;;5008035;28;20045;-81
2021/04/11 06:34:26;;;;;;;0.00;0.00;;;3.80;99.90;;;;;;5004917;28;20042;-81
2021/04/11 06:36:59;;;;;;;0.00;0.00;;;3.80;99.90;;;;;;5008262;28;20110;-81
2021/04/11 06:39:38;;;;;;;0.00;0.00;;;3.80;99.90;;;;;;5005998;28;20088;-81
2021/04/11 06:42:40;;;;;;;0.00;0.00;;;3.90;99.90;;;;;;5002371;28;20100;-81
2021/04/11 06:45:10;;;;;;;0.00;0.00;;;3.90;99.90;;;;;;5021566;28;20045;-81
2021/04/11 06:48:15;;;;;;;0.00;0.00;;;3.90;99.90;;;;;;5022792;28;20056;-81
2021/04/11 06:51:17;;;;;;;0.00;0.00;;;3.90;99.90;;;;;;5006481;28;20045;-81
2021/04/11 06:53:58;;;;;;;0.00;0.00;;;3.90;99.90;;;;;;5023151;28;20448;-83
2021/04/11 06:56:44;;;;;;;0.00;0.00;;;4.00;99.90;;;;;;5007720;28;20107;-83
2021/04/11 06:59:28;;;;;;;0.00;0.00;;;4.00;99.90;;;;;;5009323;28;20042;-83
2021/04/11 07:02:19;;;;;;;0.00;0.00;;;4.10;99.90;;;;;;5011504;28;20489;-83
2021/04/11 07:05:22;;;;;;;0.00;0.00;;;4.30;99.90;;;;;;5022635;28;20069;-83
2021/04/11 07:08:31;;;;;;;0.00;0.00;;;4.30;99.90;;;;;;5005730;28;20113;-82
2021/04/11 07:11:37;;;;;;;0.00;0.00;;;4.30;99.90;;;;;;5004814;28;20042;-82
2021/04/11 07:14:55;;;;;;;0.00;0.00;;;4.30;99.90;;;;;;4984018;28;20054;-82
2021/04/11 07:17:35;;;;;;;0.00;0.00;;;4.30;99.90;;;;;;5004464;28;20103;-82
2021/04/11 07:20:28;;;;;;;1.90;0.98;;;4.50;99.90;;;;;;5006691;28;20162;-82
2021/04/11 07:22:55;;;;;;;0.00;0.00;;;4.50;99.90;;;;;;5018703;28;20332;-82
2021/04/11 07:25:45;;;;;;;1.08;0.45;;;4.60;99.90;;;;;;5020371;28;20568;-82
2021/04/11 07:28:35;;;;;;;0.68;0.63;;;4.60;99.90;;;;;;4999255;28;20046;-81
2021/04/11 07:31:28;;;;;;;0.00;0.00;;;4.50;99.90;;;;;;5022673;28;20080;-82
2021/04/11 07:34:14;;;;;;;1.48;1.38;;;4.50;99.90;;;;;;4996972;28;20120;-82
2021/04/11 07:37:10;;;;;;;0.13;0.13;;;4.50;99.90;;;;;;5003089;28;20077;-82
2021/04/11 07:39:47;;;;;;;0.00;0.00;;;4.60;99.90;;;;;;5016578;28;20074;-82
2021/04/11 07:42:40;;;;;;;0.00;0.00;;;4.70;99.90;;;;;;5017266;28;20160;-82
2021/04/11 07:45:44;;;;;;;0.00;0.00;;;4.70;99.90;;;;;;5024109;28;20952;-82
2021/04/11 07:48:31;;;;;;;0.00;0.00;;;4.70;99.90;;;;;;5023428;28;20325;-83
2021/04/11 07:51:08;;;;;;;0.00;0.00;;;4.70;99.90;;;;;;5005753;28;20048;-83
2021/04/11 07:53:47;;;;;;;0.00;0.00;;;4.70;99.90;;;;;;5023260;28;20547;-83
2021/04/11 07:57:02;;;;;;;0.00;0.00;;;4.70;99.90;;;;;;5020754;28;20075;-82
2021/04/11 07:59:44;;;;;;;0.00;0.00;;;4.80;99.90;;;;;;4997639;28;20057;-82
2021/04/11 08:02:11;;;;;;;1.75;0.75;;;5.00;99.90;;;;;;5002108;28;20050;-83
2021/04/11 08:04:40;;;;;;;0.00;0.00;;;5.10;99.90;;;;;;5002391;28;20115;-83
2021/04/11 08:07:47;;;;;;;0.00;0.00;;;5.10;99.90;;;;;;5005104;28;20045;-83
2021/04/11 08:10:41;;;;;;;0.00;0.00;;;5.10;99.90;;;;;;5015371;28;20053;-83
2021/04/11 08:13:22;;;;;;;0.00;0.00;;;5.20;99.90;;;;;;5000942;28;20060;-83
2021/04/11 08:16:03;;;;;;;0.00;0.00;;;5.40;99.90;;;;;;5002865;28;20475;-83
2021/04/11 08:18:59;;;;;;;0.00;0.00;;;5.40;99.90;;;;;;5006094;28;20133;-83
2021/04/11 08:21:53;;;;;;;0.00;0.00;;;5.40;99.90;;;;;;5023257;28;20077;-83
2021/04/11 08:24:56;;;;;;;0.00;0.00;;;5.40;99.90;;;;;;5017820;28;20466;-83
2021/04/11 08:27:59;;;;;;;0.00;0.00;;;5.30;99.90;;;;;;5016243;28;20050;-83
2021/04/11 08:30:42;;;;;;;0.00;0.00;;;5.30;99.90;;;;;;5016753;28;20057;-83
2021/04/11 08:33:20;;;;;;;0.00;0.00;;;5.20;99.90;;;;;;4999843;28;20133;-83
2021/04/11 08:36:20;;;;;;;0.10;0.10;;;5.10;99.90;;;;;;5003534;28;20124;-83
2021/04/11 08:39:23;;;;;;;0.00;0.00;;;5.10;99.90;;;;;;5015633;28;20412;-83
2021/04/11 08:42:01;;;;;;;0.00;0.00;;;5.00;99.90;;;;;;5004694;28;20128;-83
2021/04/11 08:44:43;;;;;;;0.00;0.00;;;4.90;99.90;;;;;;5013166;28;20097;-83
2021/04/11 08:47:32;;;;;;;0.00;0.00;;;4.90;99.90;;;;;;5003818;28;20050;-83
2021/04/11 08:49:59;;;;;;;0.00;0.00;;;5.00;99.90;;;;;;5020744;28;20099;-83
2021/04/11 08:53:07;;;;;;;0.00;0.00;;;4.90;99.90;;;;;;4994673;28;20073;-83
2021/04/11 08:55:55;;;;;;;0.00;0.00;;;5.00;99.90;;;;;;5003697;28;20110;-83
2021/04/11 08:58:41;;;;;;;0.00;0.00;;;5.00;99.90;;;;;;5000801;28;20060;-83
2021/04/11 09:01:36;;;;;;;0.00;0.00;;;5.20;99.90;;;;;;5020902;28;20468;-83
2021/04/11 09:04:18;;;;;;;0.43;0.43;;;5.50;99.90;;;;;;5004355;28;20128;-83
2021/04/11 09:06:47;;;;;;;0.00;0.00;;;5.80;99.90;;;;;;5014575;28;20571;-83
2021/04/11 09:09:45;;;;;;;0.10;0.10;;;6.00;99.90;;;;;;5013810;28;20112;-83
2021/04/11 09:12:37;;;;;;;0.00;0.00;;;6.30;99.90;;;;;;4997747;28;20065;-83
2021/04/11 09:15:23;;;;;;;0.00;0.00;;;6.60;99.90;;;;;;5002893;28;20057;-83
2021/04/11 09:18:12;;;;;;;0.00;0.00;;;6.80;99.90;;;;;;5017056;28;20058;-83
2021/04/11 09:21:04;;;;;;;0.00;0.00;;;7.00;99.90;;;;;;5007478;28;20117;-83
2021/04/11 09:23:34;;;;;;;1.35;1.05;;;7.10;99.90;;;;;;5001205;28;20110;-83
2021/04/11 09:26:21;;;;;;;0.00;0.00;;;7.10;99.90;;;;;;5020589;28;20061;-83
2021/04/11 09:29:19;;;;;;;0.15;0.15;;;7.10;99.90;;;;;;5020085;28;20053;-83
2021/04/11 09:32:20;;;;;;;0.10;0.10;;;7.00;99.90;;;;;;4995165;28;20041;-83
2021/04/11 09:35:37;;;;;;;0.00;0.00;;;6.90;99.90;;;;;;5021729;28;20044;-83
2021/04/11 09:38:23;;;;;;;0.00;0.00;;;6.90;99.90;;;;;;4975832;28;20049;-83
2021/04/11 09:41:31;;;;;;;0.00;0.00;;;6.80;99.90;;;;;;5003956;28;20678;-83
2021/04/11 09:44:10;;;;;;;0.00;0.00;;;6.90;99.90;;;;;;4966184;28;20105;-83
2021/04/11 09:46:52;;;;;;;0.00;0.00;;;6.90;99.90;;;;;;5021096;28;20138;-83
2021/04/11 09:49:52;;;;;;;0.00;0.00;;;6.90;99.90;;;;;;5006645;28;20136;-83
2021/04/11 09:52:32;;;;;;;0.00;0.00;;;6.90;99.90;;;;;;4999230;28;20156;-83
2021/04/11 09:55:22;;;;;;;0.13;0.13;;;6.90;99.90;;;;;;5008085;28;20054;-83
2021/04/11 09:58:16;;;;;;;0.08;0.08;;;6.80;99.90;;;;;;5007144;28;20128;-83
2021/04/11 10:01:09;;;;;;;0.20;0.20;;;6.80;99.90;;;;;;5005453;28;20075;-83
2021/04/11 10:03:52;;;;;;;0.00;0.00;;;6.90;99.90;;;;;;5009626;28;20052;-83
2021/04/11 10:06:51;;;;;;;0.00;0.00;;;6.90;99.90;;;;;;5024027;28;20103;-83
2021/04/11 10:09:48;;;;;;;1.65;1.10;;;7.10;99.90;;;;;;4989029;28;20050;-83
2021/04/11 10:12:29;;;;;;;0.70;0.70;;;7.30;99.90;;;;;;5009501;28;20086;-83
2021/04/11 10:15:07;;;;;;;0.05;0.05;;;7.80;99.90;;;;;;5007289;28;20497;-83
2021/04/11 10:17:53;;;;;;;0.00;0.00;;;8.20;99.90;;;;;;5019229;28;20141;-83
2021/04/11 10:20:41;;;;;;;0.08;0.08;;;8.40;99.90;;;;;;5024749;28;20057;-83
2021/04/11 10:23:54;;;;;;;0.65;0.30;;;8.60;99.90;;;;;;5024110;28;20077;-83
2021/04/11 10:26:45;;;;;;;0.00;0.00;;;8.60;99.90;;;;;;4963184;28;20088;-83
2021/04/11 10:29:17;;;;;;;0.50;0.45;;;8.60;99.90;;;;;;5025785;28;20134;-83
2021/04/11 10:32:09;;;;;;;0.00;0.00;;;8.50;99.90;;;;;;5008781;28;20589;-83
2021/04/11 10:34:47;;;;;;;0.32;0.32;;;8.50;99.90;;;;;;5025628;28;20121;-83
2021/04/11 10:37:33;;;;;;;0.00;0.00;;;8.50;99.90;;;;;;5009553;28;20553;-83
2021/04/11 10:40:00;;;;;;;0.00;0.00;;;8.70;99.90;;;;;;5023785;28;20136;-82
2021/04/11 10:43:03;;;;;;;1.55;0.85;;;9.00;99.90;;;;;;5023943;28;20476;-82
2021/04/11 10:45:37;;;;;;;0.00;0.00;;;9.40;99.90;;;;;;4999689;28;20065;-82
2021/04/11 10:48:30;;;;;;;0.00;0.00;;;9.80;99.90;;;;;;5022869;28;20536;-82
2021/04/11 10:51:35;;;;;;;0.00;0.00;;;10.00;99.90;;;;;;5023088;28;20047;-83
2021/04/11 10:54:36;;;;;;;0.00;0.00;;;9.90;99.90;;;;;;5023160;28;20054;-83
2021/04/11 10:57:35;;;;;;;0.00;0.00;;;9.40;99.90;;;;;;5006630;28;20086;-83
2021/04/11 11:00:10;;;;;;;0.00;0.00;;;8.90;99.90;;;;;;5022347;28;20132;-82
2021/04/11 11:02:58;;;;;;;0.00;0.00;;;8.50;99.90;;;;;;5010225;28;20109;-82
2021/04/11 11:05:45;;;;;;;0.00;0.00;;;8.30;99.90;;;;;;5022124;28;20151;-83
2021/04/11 11:08:23;;;;;;;1.30;0.28;;;8.10;99.90;;;;;;5024126;28;20054;-82
2021/04/11 11:11:07;;;;;;;2.30;0.82;;;8.10;99.90;;;;;;5023389;28;20123;-82
2021/04/11 11:13:42;;;;;;;5.47;1.80;;;8.40;99.90;;;;;;5002815;28;20053;-82
2021/04/11 11:16:37;;;;;;;5.05;1.45;;;8.70;99.90;;;;;;5014863;28;20054;-82
2021/04/11 11:19:28;;;;;;;3.28;0.80;;;8.90;99.90;;;;;;5006203;28;20136;-83
2021/04/11 11:21:57;;;;;;;3.10;1.27;;;9.00;99.90;;;;;;5004298;28;20054;-83
2021/04/11 11:24:45;;;;;;;5.50;1.00;;;9.10;99.90;;;;;;5022441;28;20057;-83
2021/04/11 11:27:45;;;;;;;5.63;0.82;;;9.30;99.90;;;;;;5006155;28;20046;-83
2021/04/11 11:31:07;;;;;;;4.38;1.25;;;9.50;99.90;;;;;;4981861;28;20489;-83
2021/04/11 11:33:46;;;;;;;7.32;0.82;;;9.70;99.90;;;;;;5005770;28;20390;-83
2021/04/11 11:36:31;;;;;;;5.45;0.60;;;10.00;99.90;;;;;;5006086;28;20060;-83
2021/04/11 11:39:49;;;;;;;1.30;0.50;;;10.20;99.90;;;;;;5021091;28;20108;-83
2021/04/11 11:42:37;;;;;;;3.08;0.70;;;10.20;99.90;;;;;;4952193;28;20085;-83
2021/04/11 11:45:35;;;;;;;5.40;1.08;;;10.00;99.90;;;;;;5019761;28;20046;-83
2021/04/11 11:48:27;;;;;;;1.35;0.98;;;10.00;99.90;;;;;;5016351;28;20124;-82
2021/04/11 11:51:28;;;;;;;3.63;0.75;;;10.10;99.90;;;;;;5014036;28;20069;-82
2021/04/11 11:54:04;;;;;;;2.20;0.65;;;10.10;99.90;;;;;;5022631;28;20053;-82
2021/04/11 11:56:38;;;;;;;1.88;0.47;;;9.90;99.90;;;;;;5013935;28;20512;-82
2021/04/11 11:59:37;;;;;;;3.72;0.82;;;9.70;99.90;;;;;;5004678;28;20396;-82
2021/04/11 12:02:13;;;;;;;5.82;0.88;;;9.70;99.90;;;;;;5018934;28;20413;-82
2021/04/11 12:04:58;;;;;;;4.95;0.85;;;9.70;99.90;;;;;;5021765;28;20128;-82
2021/04/11 12:07:33;;;;;;;4.65;0.77;;;9.80;99.90;;;;;;5004755;28;20125;-82
2021/04/11 12:10:09;;;;;;;6.38;1.20;;;10.00;99.90;;;;;;5002675;28;20398;-82
2021/04/11 12:13:08;;;;;;;2.72;1.30;;;10.60;99.90;;;;;;5021576;28;20609;-83
2021/04/11 12:15:59;;;;;;;2.17;0.70;;;11.00;99.90;;;;;;5002554;28;20073;-83
2021/04/11 12:18:30;;;;;;;3.40;0.38;;;11.20;99.70;;;;;;5012256;28;20076;-82
2021/04/11 12:21:18;;;;;;;2.33;0.30;;;11.30;95.50;;;;;;5020231;28;20054;-82
2021/04/11 12:23:56;;;;;;;2.35;0.60;;;11.00;92.20;;;;;;5019342;28;21282;-83
2021/04/11 12:26:26;;;;;;;4.63;0.85;;;10.60;98.10;;;;;;5023834;28;20061;-81
2021/04/11 12:28:54;;;;;;;1.60;0.70;;;11.10;99.90;;;;;;5003072;28;20107;-82
2021/04/11 12:31:45;;;;;;;3.28;0.90;;;12.30;96.20;;;;;;5021974;28;20045;-83
2021/04/11 12:34:46;;;;;;;4.28;0.50;;;13.00;94.00;;;;;;5003688;28;20046;-83
2021/04/11 12:37:33;;;;;;;4.72;0.60;;;13.30;87.60;;;;;;5021428;28;20060;-83
2021/04/11 12:40:09;;;;;;;2.17;0.40;;;13.30;83.00;;;;;;5004903;28;20045;-82
2021/04/11 12:43:22;;;;;;;0.85;0.32;;;12.90;79.00;;;;;;5002293;28;20443;-83
2021/04/11 12:46:06;;;;;;;2.20;0.30;;;12.40;83.00;;;;;;4946761;28;20138;-82
2021/04/11 12:48:44;;;;;;;1.00;0.40;;;12.50;85.30;;;;;;5003815;28;20041;-82
2021/04/11 12:51:19;;;;;;;1.63;0.50;;;13.40;80.70;;;;;;5020839;28;20072;-82
2021/04/11 12:54:20;;;;;;;1.60;0.50;;;14.10;80.60;;;;;;5018744;28;20077;-82
2021/04/11 12:56:59;;;;;;;1.50;0.45;;;14.90;73.80;;;;;;5019778;28;20125;-83
2021/04/11 12:59:39;;;;;;;2.05;0.60;;;15.30;69.20;;;;;;4997798;28;20153;-82
2021/04/11 13:02:17;;;;;;;1.20;0.40;;;16.10;69.60;;;;;;5003983;28;20065;-83
2021/04/11 13:04:50;;;;;;;2.10;0.50;;;16.90;60.10;;;;;;5005968;28;20050;-82
2021/04/11 13:07:23;;;;;;;1.63;0.95;;;16.80;62.70;;;;;;5003487;28;20096;-82
2021/04/11 13:10:15;;;;;;;2.90;0.93;;;17.40;63.30;;;;;;5004847;28;20173;-83
2021/04/11 13:12:59;;;;;;;4.50;0.40;;;18.30;61.00;;;;;;5005127;28;20402;-82
2021/04/11 13:15:37;;;;;;;2.60;0.60;;;19.20;54.80;;;;;;5005920;28;20069;-81
2021/04/11 13:18:21;;;;;;;0.70;0.30;;;19.70;53.50;;;;;;5003272;28;20145;-82
2021/04/11 13:21:14;;;;;;;2.72;0.40;;;20.20;51.50;;;;;;5005630;28;20503;-81
2021/04/11 13:23:43;;;;;;;2.45;0.30;;;20.40;50.20;;;;;;4995796;28;20132;-82
2021/04/11 13:26:35;;;;;;;2.60;0.68;;;20.70;49.80;;;;;;5002354;28;20118;-82
2021/04/11 13:29:15;;;;;;;1.20;0.45;;;21.40;48.20;;;;;;5006763;28;20054;-83
2021/04/11 13:31:53;;;;;;;1.75;0.40;;;22.00;48.20;;;;;;5010066;28;20108;-82
2021/04/11 13:34:42;;;;;;;2.60;0.40;;;22.30;45.30;;;;;;5007422;28;20046;-83
2021/04/11 13:37:13;;;;;;;2.80;0.77;;;22.40;45.60;;;;;;5008308;28;20065;-83
2021/04/11 13:39:42;;;;;;;4.57;0.60;;;22.60;44.90;;;;;;5023505;28;20124;-83
2021/04/11 13:42:18;;;;;;;2.90;0.52;;;22.70;44.60;;;;;;5007126;28;20050;-83
2021/04/11 13:45:05;;;;;;;2.00;0.52;;;22.50;44.00;;;;;;5007160;28;20102;-83
2021/04/11 13:47:40;;;;;;;1.95;0.35;;;22.30;44.30;;;;;;5006793;28;20541;-83
2021/04/11 13:50:13;;;;;;;2.47;0.40;;;22.40;44.60;;;;;;5023776;28;20074;-83
2021/04/11 13:53:03;;;;;;;3.15;0.40;;;22.70;42.80;;;;;;5009102;28;20088;-82
2021/04/11 13:55:46;;;;;;;1.65;0.40;;;22.50;41.50;;;;;;5010458;28;20088;-82
2021/04/11 13:58:33;;;;;;;5.20;0.50;;;21.80;43.50;;;;;;5008337;28;20061;-82
2021/04/11 14:01:08;;;;;;;11.43;0.52;;;21.40;44.00;;;;;;4998974;28;20049;-82
2021/04/11 14:03:40;;;;;;;1.30;0.32;;;21.10;43.10;;;;;;5025490;28;20221;-82
2021/04/11 14:06:23;;;;;;;2.10;0.50;;;20.30;42.80;;;;;;5022235;28;20050;-81